sensor_id;sensor_type;location;lat;lon;timestamp;P1;durP1;ratioP1;P2;durP2;ratioP2
7173;SDS011;3628;48.654;8.932;2023-04-22T00:00:19;1.40;;;1.30;;
7173;SDS011;3628;48.654;8.932;2023-04-22T00:02:45;2.50;;;1.40;;
7173;SDS011;3628;48.654;8.932;2023-04-22T00:05:10;1.90;;;1.20;;
7173;SDS011;3628;48.654;8.932;2023-04-22T00:07:38;4.33;;;1.20;;
7173;SDS011;3628;48.654;8.932;2023-04-22T00:10:07;1.10;;;1.00;;
7173;SDS011;3628;48.654;8.932;2023-04-22T00:12:33;2.37;;;1.30;;
7173;SDS011;3628;48.654;8.932;2023-04-22T00:14:59;2.13;;;1.60;;
7173;SDS011;3628;48.654;8.932;2023-04-22T00:17:24;3.13;;;1.07;;
7173;SDS011;3628;48.654;8.932;2023-04-22T00:19:50;3.33;;;1.30;;
7173;SDS011;3628;48.654;8.932;2023-04-22T00:22:16;2.30;;;1.30;;
7173;SDS011;3628;48.654;8.932;2023-04-22T00:24:41;1.67;;;1.20;;
7173;SDS011;3628;48.654;8.932;2023-04-22T00:27:07;2.77;;;1.37;;
7173;SDS011;3628;48.654;8.932;2023-04-22T00:29:33;1.20;;;1.10;;
7173;SDS011;3628;48.654;8.932;2023-04-22T00:31:59;1.23;;;1.13;;
7173;SDS011;3628;48.654;8.932;2023-04-22T00:34:24;1.20;;;1.10;;
7173;SDS011;3628;48.654;8.932;2023-04-22T00:36:50;1.10;;;1.00;;
7173;SDS011;3628;48.654;8.932;2023-04-22T00:39:16;1.30;;;1.20;;
7173;SDS011;3628;48.654;8.932;2023-04-22T00:41:41;1.30;;;1.10;;
7173;SDS011;3628;48.654;8.932;2023-04-22T00:44:08;2.60;;;1.03;;
7173;SDS011;3628;48.654;8.932;2023-04-22T00:46:34;1.30;;;1.00;;
7173;SDS011;3628;48.654;8.932;2023-04-22T00:49:02;1.23;;;1.10;;
7173;SDS011;3628;48.654;8.932;2023-04-22T00:51:29;5.10;;;1.30;;
7173;SDS011;3628;48.654;8.932;2023-04-22T00:53:55;1.50;;;1.10;;
7173;SDS011;3628;48.654;8.932;2023-04-22T00:56:21;1.70;;;1.27;;
7173;SDS011;3628;48.654;8.932;2023-04-22T00:58:50;1.70;;;0.90;;
7173;SDS011;3628;48.654;8.932;2023-04-22T01:01:17;1.00;;;0.90;;
7173;SDS011;3628;48.654;8.932;2023-04-22T01:03:43;2.27;;;1.17;;
7173;SDS011;3628;48.654;8.932;2023-04-22T01:06:11;1.20;;;1.07;;
7173;SDS011;3628;48.654;8.932;2023-04-22T01:08:37;1.70;;;1.30;;
7173;SDS011;3628;48.654;8.932;2023-04-22T01:11:04;2.40;;;1.00;;
7173;SDS011;3628;48.654;8.932;2023-04-22T01:13:30;1.57;;;1.10;;
7173;SDS011;3628;48.654;8.932;2023-04-22T01:15:56;2.53;;;1.37;;
7173;SDS011;3628;48.654;8.932;2023-04-22T01:18:24;1.40;;;1.30;;
7173;SDS011;3628;48.654;8.932;2023-04-22T01:20:50;1.57;;;1.30;;
7173;SDS011;3628;48.654;8.932;2023-04-22T01:23:17;1.90;;;1.30;;
7173;SDS011;3628;48.654;8.932;2023-04-22T01:25:44;2.03;;;1.40;;
7173;SDS011;3628;48.654;8.932;2023-04-22T01:28:11;1.63;;;1.07;;
7173;SDS011;3628;48.654;8.932;2023-04-22T01:30:37;2.37;;;1.13;;
7173;SDS011;3628;48.654;8.932;2023-04-22T01:33:03;3.33;;;1.13;;
7173;SDS011;3628;48.654;8.932;2023-04-22T01:35:29;1.40;;;1.30;;
7173;SDS011;3628;48.654;8.932;2023-04-22T01:38:00;1.00;;;1.00;;
7173;SDS011;3628;48.654;8.932;2023-04-22T01:40:33;1.07;;;1.03;;
7173;SDS011;3628;48.654;8.932;2023-04-22T01:42:59;1.40;;;1.30;;
7173;SDS011;3628;48.654;8.932;2023-04-22T01:45:25;1.40;;;1.30;;
7173;SDS011;3628;48.654;8.932;2023-04-22T01:47:51;2.70;;;1.43;;
7173;SDS011;3628;48.654;8.932;2023-04-22T01:50:17;3.67;;;1.30;;
7173;SDS011;3628;48.654;8.932;2023-04-22T01:52:43;1.93;;;1.20;;
7173;SDS011;3628;48.654;8.932;2023-04-22T01:55:09;2.83;;;1.40;;
7173;SDS011;3628;48.654;8.932;2023-04-22T01:57:34;2.07;;;1.10;;
7173;SDS011;3628;48.654;8.932;2023-04-22T02:00:00;1.73;;;1.20;;
7173;SDS011;3628;48.654;8.932;2023-04-22T02:02:26;2.63;;;1.30;;
7173;SDS011;3628;48.654;8.932;2023-04-22T02:04:52;2.37;;;1.60;;
7173;SDS011;3628;48.654;8.932;2023-04-22T02:07:17;1.37;;;1.20;;
7173;SDS011;3628;48.654;8.932;2023-04-22T02:09:43;1.87;;;1.20;;
7173;SDS011;3628;48.654;8.932;2023-04-22T02:12:08;1.60;;;1.50;;
7173;SDS011;3628;48.654;8.932;2023-04-22T02:14:34;1.20;;;1.10;;
7173;SDS011;3628;48.654;8.932;2023-04-22T02:16:59;3.70;;;1.10;;
7173;SDS011;3628;48.654;8.932;2023-04-22T02:19:26;1.63;;;1.13;;
7173;SDS011;3628;48.654;8.932;2023-04-22T02:21:52;1.93;;;1.30;;
7173;SDS011;3628;48.654;8.932;2023-04-22T02:24:18;2.50;;;1.00;;
7173;SDS011;3628;48.654;8.932;2023-04-22T02:26:44;0.97;;;0.90;;
7173;SDS011;3628;48.654;8.932;2023-04-22T02:29:11;1.60;;;1.20;;
7173;SDS011;3628;48.654;8.932;2023-04-22T02:31:37;1.43;;;1.10;;
7173;SDS011;3628;48.654;8.932;2023-04-22T02:34:03;4.00;;;1.37;;
7173;SDS011;3628;48.654;8.932;2023-04-22T02:36:28;1.53;;;1.20;;
7173;SDS011;3628;48.654;8.932;2023-04-22T02:38:55;2.30;;;1.30;;
7173;SDS011;3628;48.654;8.932;2023-04-22T02:41:21;1.43;;;1.27;;
7173;SDS011;3628;48.654;8.932;2023-04-22T02:43:47;4.97;;;1.60;;
7173;SDS011;3628;48.654;8.932;2023-04-22T02:46:13;1.20;;;1.03;;
7173;SDS011;3628;48.654;8.932;2023-04-22T02:48:43;1.33;;;1.00;;
7173;SDS011;3628;48.654;8.932;2023-04-22T02:51:08;0.90;;;0.90;;
7173;SDS011;3628;48.654;8.932;2023-04-22T02:53:35;3.23;;;1.20;;
7173;SDS011;3628;48.654;8.932;2023-04-22T02:56:00;3.07;;;1.20;;
7173;SDS011;3628;48.654;8.932;2023-04-22T02:58:26;1.00;;;1.00;;
7173;SDS011;3628;48.654;8.932;2023-04-22T03:00:52;1.20;;;1.10;;
7173;SDS011;3628;48.654;8.932;2023-04-22T03:03:17;2.13;;;1.23;;
7173;SDS011;3628;48.654;8.932;2023-04-22T03:05:43;1.73;;;1.30;;
7173;SDS011;3628;48.654;8.932;2023-04-22T03:08:09;1.73;;;1.40;;
7173;SDS011;3628;48.654;8.932;2023-04-22T03:10:34;1.60;;;1.40;;
7173;SDS011;3628;48.654;8.932;2023-04-22T03:13:00;1.97;;;1.00;;
7173;SDS011;3628;48.654;8.932;2023-04-22T03:15:26;1.57;;;1.23;;
7173;SDS011;3628;48.654;8.932;2023-04-22T03:17:51;2.40;;;1.20;;
7173;SDS011;3628;48.654;8.932;2023-04-22T03:20:17;1.53;;;1.20;;
7173;SDS011;3628;48.654;8.932;2023-04-22T03:22:43;1.43;;;1.13;;
7173;SDS011;3628;48.654;8.932;2023-04-22T03:25:09;1.33;;;1.23;;
7173;SDS011;3628;48.654;8.932;2023-04-22T03:27:35;3.70;;;1.47;;
7173;SDS011;3628;48.654;8.932;2023-04-22T03:30:01;1.63;;;1.37;;
7173;SDS011;3628;48.654;8.932;2023-04-22T03:32:27;2.30;;;1.10;;
7173;SDS011;3628;48.654;8.932;2023-04-22T03:34:53;1.43;;;1.30;;
7173;SDS011;3628;48.654;8.932;2023-04-22T03:37:18;2.27;;;1.20;;
7173;SDS011;3628;48.654;8.932;2023-04-22T03:39:44;2.10;;;1.30;;
7173;SDS011;3628;48.654;8.932;2023-04-22T03:42:09;2.97;;;1.13;;
7173;SDS011;3628;48.654;8.932;2023-04-22T03:44:36;1.30;;;1.20;;
7173;SDS011;3628;48.654;8.932;2023-04-22T03:47:01;2.80;;;1.30;;
7173;SDS011;3628;48.654;8.932;2023-04-22T03:49:27;1.63;;;1.03;;
7173;SDS011;3628;48.654;8.932;2023-04-22T03:51:52;2.27;;;1.60;;
7173;SDS011;3628;48.654;8.932;2023-04-22T03:54:18;1.73;;;1.50;;
7173;SDS011;3628;48.654;8.932;2023-04-22T03:56:43;1.40;;;1.30;;
7173;SDS011;3628;48.654;8.932;2023-04-22T03:59:09;1.90;;;1.30;;
7173;SDS011;3628;48.654;8.932;2023-04-22T04:01:35;2.13;;;1.33;;
7173;SDS011;3628;48.654;8.932;2023-04-22T04:04:00;1.60;;;1.43;;
7173;SDS011;3628;48.654;8.932;2023-04-22T04:06:27;1.93;;;1.30;;
7173;SDS011;3628;48.654;8.932;2023-04-22T04:08:53;1.47;;;1.20;;
7173;SDS011;3628;48.654;8.932;2023-04-22T04:11:19;1.83;;;1.10;;
7173;SDS011;3628;48.654;8.932;2023-04-22T04:13:44;1.30;;;1.20;;
7173;SDS011;3628;48.654;8.932;2023-04-22T04:16:10;2.63;;;1.40;;
7173;SDS011;3628;48.654;8.932;2023-04-22T04:18:35;2.53;;;1.40;;
7173;SDS011;3628;48.654;8.932;2023-04-22T04:21:02;1.17;;;1.10;;
7173;SDS011;3628;48.654;8.932;2023-04-22T04:23:28;1.87;;;1.50;;
7173;SDS011;3628;48.654;8.932;2023-04-22T04:25:53;1.77;;;1.30;;
7173;SDS011;3628;48.654;8.932;2023-04-22T04:28:19;1.30;;;1.20;;
7173;SDS011;3628;48.654;8.932;2023-04-22T04:30:46;1.20;;;0.93;;
7173;SDS011;3628;48.654;8.932;2023-04-22T04:33:11;1.90;;;1.20;;
7173;SDS011;3628;48.654;8.932;2023-04-22T04:35:40;2.60;;;1.47;;
7173;SDS011;3628;48.654;8.932;2023-04-22T04:38:07;1.70;;;1.30;;
7173;SDS011;3628;48.654;8.932;2023-04-22T04:40:33;1.63;;;1.33;;
7173;SDS011;3628;48.654;8.932;2023-04-22T04:42:58;1.40;;;1.30;;
7173;SDS011;3628;48.654;8.932;2023-04-22T04:45:27;2.10;;;1.30;;
7173;SDS011;3628;48.654;8.932;2023-04-22T04:47:53;2.50;;;1.37;;
7173;SDS011;3628;48.654;8.932;2023-04-22T04:50:19;1.57;;;1.47;;
7173;SDS011;3628;48.654;8.932;2023-04-22T04:52:46;1.60;;;1.17;;
7173;SDS011;3628;48.654;8.932;2023-04-22T04:55:12;1.17;;;1.13;;
7173;SDS011;3628;48.654;8.932;2023-04-22T04:57:38;4.30;;;1.30;;
7173;SDS011;3628;48.654;8.932;2023-04-22T05:00:04;1.40;;;1.30;;
7173;SDS011;3628;48.654;8.932;2023-04-22T05:02:31;1.27;;;1.17;;
7173;SDS011;3628;48.654;8.932;2023-04-22T05:04:56;3.23;;;1.60;;
7173;SDS011;3628;48.654;8.932;2023-04-22T05:07:22;2.73;;;1.57;;
7173;SDS011;3628;48.654;8.932;2023-04-22T05:09:47;1.80;;;1.33;;
7173;SDS011;3628;48.654;8.932;2023-04-22T05:12:13;1.57;;;1.37;;
7173;SDS011;3628;48.654;8.932;2023-04-22T05:14:39;1.33;;;1.23;;
7173;SDS011;3628;48.654;8.932;2023-04-22T05:17:05;2.10;;;1.60;;
7173;SDS011;3628;48.654;8.932;2023-04-22T05:19:31;2.13;;;1.27;;
7173;SDS011;3628;48.654;8.932;2023-04-22T05:21:56;1.73;;;1.60;;
7173;SDS011;3628;48.654;8.932;2023-04-22T05:24:22;1.50;;;1.40;;
7173;SDS011;3628;48.654;8.932;2023-04-22T05:26:48;1.73;;;1.30;;
7173;SDS011;3628;48.654;8.932;2023-04-22T05:29:14;1.70;;;1.40;;
7173;SDS011;3628;48.654;8.932;2023-04-22T05:31:39;1.40;;;1.20;;
7173;SDS011;3628;48.654;8.932;2023-04-22T05:34:05;1.83;;;1.20;;
7173;SDS011;3628;48.654;8.932;2023-04-22T05:36:31;1.40;;;1.30;;
7173;SDS011;3628;48.654;8.932;2023-04-22T05:38:56;1.07;;;1.03;;
7173;SDS011;3628;48.654;8.932;2023-04-22T05:41:22;1.40;;;1.30;;
7173;SDS011;3628;48.654;8.932;2023-04-22T05:43:47;4.50;;;1.30;;
7173;SDS011;3628;48.654;8.932;2023-04-22T05:46:13;1.30;;;1.20;;
7173;SDS011;3628;48.654;8.932;2023-04-22T05:48:39;1.33;;;1.20;;
7173;SDS011;3628;48.654;8.932;2023-04-22T05:51:04;3.77;;;1.30;;
7173;SDS011;3628;48.654;8.932;2023-04-22T05:53:30;3.00;;;2.00;;
7173;SDS011;3628;48.654;8.932;2023-04-22T05:55:55;1.70;;;1.60;;
7173;SDS011;3628;48.654;8.932;2023-04-22T05:58:21;3.60;;;1.77;;
7173;SDS011;3628;48.654;8.932;2023-04-22T06:00:46;2.37;;;1.77;;
7173;SDS011;3628;48.654;8.932;2023-04-22T06:03:12;3.50;;;1.77;;
7173;SDS011;3628;48.654;8.932;2023-04-22T06:05:37;2.43;;;1.90;;
7173;SDS011;3628;48.654;8.932;2023-04-22T06:08:03;1.93;;;1.80;;
7173;SDS011;3628;48.654;8.932;2023-04-22T06:10:28;2.47;;;1.90;;
7173;SDS011;3628;48.654;8.932;2023-04-22T06:12:54;2.07;;;1.87;;
7173;SDS011;3628;48.654;8.932;2023-04-22T06:15:20;2.77;;;1.77;;
7173;SDS011;3628;48.654;8.932;2023-04-22T06:17:46;2.37;;;2.07;;
7173;SDS011;3628;48.654;8.932;2023-04-22T06:20:12;2.60;;;2.10;;
7173;SDS011;3628;48.654;8.932;2023-04-22T06:22:38;3.60;;;2.40;;
7173;SDS011;3628;48.654;8.932;2023-04-22T06:25:04;4.17;;;2.23;;
7173;SDS011;3628;48.654;8.932;2023-04-22T06:27:30;2.23;;;2.00;;
7173;SDS011;3628;48.654;8.932;2023-04-22T06:29:56;3.13;;;2.03;;
7173;SDS011;3628;48.654;8.932;2023-04-22T06:32:21;4.17;;;2.40;;
7173;SDS011;3628;48.654;8.932;2023-04-22T06:34:47;2.37;;;2.13;;
7173;SDS011;3628;48.654;8.932;2023-04-22T06:37:12;3.07;;;2.53;;
7173;SDS011;3628;48.654;8.932;2023-04-22T06:39:38;3.50;;;2.63;;
7173;SDS011;3628;48.654;8.932;2023-04-22T06:42:03;3.10;;;2.47;;
7173;SDS011;3628;48.654;8.932;2023-04-22T06:44:29;4.00;;;2.47;;
7173;SDS011;3628;48.654;8.932;2023-04-22T06:46:56;2.87;;;2.17;;
7173;SDS011;3628;48.654;8.932;2023-04-22T06:49:21;2.67;;;2.47;;
7173;SDS011;3628;48.654;8.932;2023-04-22T06:51:47;6.00;;;3.00;;
7173;SDS011;3628;48.654;8.932;2023-04-22T06:54:12;2.97;;;2.47;;
7173;SDS011;3628;48.654;8.932;2023-04-22T06:56:38;3.43;;;2.90;;
7173;SDS011;3628;48.654;8.932;2023-04-22T06:59:03;2.40;;;2.20;;
7173;SDS011;3628;48.654;8.932;2023-04-22T07:01:31;2.30;;;2.13;;
7173;SDS011;3628;48.654;8.932;2023-04-22T07:03:57;3.00;;;2.40;;
7173;SDS011;3628;48.654;8.932;2023-04-22T07:06:22;3.50;;;2.23;;
7173;SDS011;3628;48.654;8.932;2023-04-22T07:08:48;5.17;;;2.40;;
7173;SDS011;3628;48.654;8.932;2023-04-22T07:11:14;3.60;;;2.30;;
7173;SDS011;3628;48.654;8.932;2023-04-22T07:13:39;2.97;;;2.20;;
7173;SDS011;3628;48.654;8.932;2023-04-22T07:16:05;2.70;;;2.40;;
7173;SDS011;3628;48.654;8.932;2023-04-22T07:18:31;3.73;;;2.43;;
7173;SDS011;3628;48.654;8.932;2023-04-22T07:20:56;2.50;;;2.13;;
7173;SDS011;3628;48.654;8.932;2023-04-22T07:23:22;3.00;;;2.30;;
7173;SDS011;3628;48.654;8.932;2023-04-22T07:25:47;3.07;;;2.23;;
7173;SDS011;3628;48.654;8.932;2023-04-22T07:28:13;2.33;;;2.10;;
7173;SDS011;3628;48.654;8.932;2023-04-22T07:30:39;2.80;;;2.23;;
7173;SDS011;3628;48.654;8.932;2023-04-22T07:33:04;3.23;;;2.23;;
7173;SDS011;3628;48.654;8.932;2023-04-22T07:35:30;2.60;;;2.40;;
7173;SDS011;3628;48.654;8.932;2023-04-22T07:37:55;2.60;;;2.30;;
7173;SDS011;3628;48.654;8.932;2023-04-22T07:40:21;2.73;;;2.47;;
7173;SDS011;3628;48.654;8.932;2023-04-22T07:42:47;2.57;;;2.30;;
7173;SDS011;3628;48.654;8.932;2023-04-22T07:45:12;2.40;;;2.20;;
7173;SDS011;3628;48.654;8.932;2023-04-22T07:47:38;3.40;;;2.43;;
7173;SDS011;3628;48.654;8.932;2023-04-22T07:50:04;2.67;;;2.43;;
7173;SDS011;3628;48.654;8.932;2023-04-22T07:52:30;3.80;;;2.30;;
7173;SDS011;3628;48.654;8.932;2023-04-22T07:54:55;2.47;;;2.00;;
7173;SDS011;3628;48.654;8.932;2023-04-22T07:57:21;2.90;;;2.60;;
7173;SDS011;3628;48.654;8.932;2023-04-22T07:59:50;2.93;;;2.27;;
7173;SDS011;3628;48.654;8.932;2023-04-22T08:02:16;3.23;;;2.40;;
7173;SDS011;3628;48.654;8.932;2023-04-22T08:04:41;3.53;;;2.10;;
7173;SDS011;3628;48.654;8.932;2023-04-22T08:07:07;2.37;;;2.00;;
7173;SDS011;3628;48.654;8.932;2023-04-22T08:09:33;2.13;;;1.93;;
7173;SDS011;3628;48.654;8.932;2023-04-22T08:11:59;2.40;;;2.20;;
7173;SDS011;3628;48.654;8.932;2023-04-22T08:14:25;1.83;;;1.73;;
7173;SDS011;3628;48.654;8.932;2023-04-22T08:16:51;2.80;;;1.80;;
7173;SDS011;3628;48.654;8.932;2023-04-22T08:19:17;3.37;;;1.83;;
7173;SDS011;3628;48.654;8.932;2023-04-22T08:21:43;1.80;;;1.50;;
7173;SDS011;3628;48.654;8.932;2023-04-22T08:24:09;2.50;;;1.60;;
7173;SDS011;3628;48.654;8.932;2023-04-22T08:26:35;1.90;;;1.33;;
7173;SDS011;3628;48.654;8.932;2023-04-22T08:29:01;2.50;;;1.60;;
7173;SDS011;3628;48.654;8.932;2023-04-22T08:31:27;1.45;;;1.35;;
7173;SDS011;3628;48.654;8.932;2023-04-22T08:33:53;2.13;;;1.50;;
7173;SDS011;3628;48.654;8.932;2023-04-22T08:36:18;2.58;;;1.17;;
7173;SDS011;3628;48.654;8.932;2023-04-22T08:38:46;3.42;;;1.27;;
7173;SDS011;3628;48.654;8.932;2023-04-22T08:41:12;1.75;;;1.20;;
7173;SDS011;3628;48.654;8.932;2023-04-22T08:43:39;2.00;;;1.05;;
7173;SDS011;3628;48.654;8.932;2023-04-22T08:46:05;0.88;;;0.88;;
7173;SDS011;3628;48.654;8.932;2023-04-22T08:48:31;0.95;;;0.95;;
7173;SDS011;3628;48.654;8.932;2023-04-22T08:50:56;2.13;;;0.90;;
7173;SDS011;3628;48.654;8.932;2023-04-22T08:53:22;1.63;;;1.00;;
7173;SDS011;3628;48.654;8.932;2023-04-22T08:55:48;0.82;;;0.80;;
7173;SDS011;3628;48.654;8.932;2023-04-22T08:58:14;0.70;;;0.70;;
7173;SDS011;3628;48.654;8.932;2023-04-22T09:00:43;0.55;;;0.55;;
7173;SDS011;3628;48.654;8.932;2023-04-22T09:03:09;2.47;;;0.90;;
7173;SDS011;3628;48.654;8.932;2023-04-22T09:05:37;1.23;;;0.90;;
7173;SDS011;3628;48.654;8.932;2023-04-22T09:08:04;1.00;;;0.75;;
7173;SDS011;3628;48.654;8.932;2023-04-22T09:10:31;2.45;;;1.02;;
7173;SDS011;3628;48.654;8.932;2023-04-22T09:13:00;1.38;;;0.80;;
7173;SDS011;3628;48.654;8.932;2023-04-22T09:15:29;0.90;;;0.90;;
7173;SDS011;3628;48.654;8.932;2023-04-22T09:17:55;1.10;;;1.00;;
7173;SDS011;3628;48.654;8.932;2023-04-22T09:20:25;1.35;;;1.00;;
7173;SDS011;3628;48.654;8.932;2023-04-22T09:22:53;1.85;;;1.08;;
7173;SDS011;3628;48.654;8.932;2023-04-22T09:25:21;0.93;;;0.93;;
7173;SDS011;3628;48.654;8.932;2023-04-22T09:27:52;0.80;;;0.80;;
7173;SDS011;3628;48.654;8.932;2023-04-22T09:30:26;1.73;;;1.13;;
7173;SDS011;3628;48.654;8.932;2023-04-22T09:32:58;1.20;;;1.05;;
7173;SDS011;3628;48.654;8.932;2023-04-22T09:37:55;1.88;;;1.20;;
7173;SDS011;3628;48.654;8.932;2023-04-22T09:40:22;2.17;;;1.00;;
7173;SDS011;3628;48.654;8.932;2023-04-22T09:42:52;1.10;;;1.00;;
7173;SDS011;3628;48.654;8.932;2023-04-22T09:47:54;1.00;;;0.98;;
7173;SDS011;3628;48.654;8.932;2023-04-22T09:50:25;0.70;;;0.70;;
7173;SDS011;3628;48.654;8.932;2023-04-22T09:52:56;1.23;;;0.70;;
7173;SDS011;3628;48.654;8.932;2023-04-22T09:55:24;0.60;;;0.60;;
7173;SDS011;3628;48.654;8.932;2023-04-22T09:57:54;0.65;;;0.55;;
7173;SDS011;3628;48.654;8.932;2023-04-22T10:00:22;1.00;;;0.60;;
7173;SDS011;3628;48.654;8.932;2023-04-22T10:02:51;0.85;;;0.70;;
7173;SDS011;3628;48.654;8.932;2023-04-22T10:05:17;0.60;;;0.60;;
7173;SDS011;3628;48.654;8.932;2023-04-22T10:07:43;3.25;;;0.60;;
7173;SDS011;3628;48.654;8.932;2023-04-22T10:10:08;0.73;;;0.52;;
7173;SDS011;3628;48.654;8.932;2023-04-22T10:12:34;0.40;;;0.40;;
7173;SDS011;3628;48.654;8.932;2023-04-22T10:15:01;0.95;;;0.57;;
7173;SDS011;3628;48.654;8.932;2023-04-22T10:17:31;0.50;;;0.50;;
7173;SDS011;3628;48.654;8.932;2023-04-22T10:19:59;0.50;;;0.40;;
7173;SDS011;3628;48.654;8.932;2023-04-22T10:22:30;0.50;;;0.50;;
7173;SDS011;3628;48.654;8.932;2023-04-22T10:24:57;1.60;;;0.65;;
7173;SDS011;3628;48.654;8.932;2023-04-22T10:27:23;0.68;;;0.50;;
7173;SDS011;3628;48.654;8.932;2023-04-22T10:29:49;2.42;;;0.80;;
7173;SDS011;3628;48.654;8.932;2023-04-22T10:34:44;0.68;;;0.50;;
7173;SDS011;3628;48.654;8.932;2023-04-22T10:37:12;3.08;;;0.77;;
7173;SDS011;3628;48.654;8.932;2023-04-22T10:39:39;1.70;;;0.80;;
7173;SDS011;3628;48.654;8.932;2023-04-22T10:42:07;1.15;;;0.85;;
7173;SDS011;3628;48.654;8.932;2023-04-22T10:44:47;1.70;;;0.57;;
7173;SDS011;3628;48.654;8.932;2023-04-22T10:47:24;1.48;;;0.70;;
7173;SDS011;3628;48.654;8.932;2023-04-22T10:52:39;0.77;;;0.70;;
7173;SDS011;3628;48.654;8.932;2023-04-22T10:55:05;0.55;;;0.52;;
7173;SDS011;3628;48.654;8.932;2023-04-22T10:57:32;2.42;;;0.93;;
7173;SDS011;3628;48.654;8.932;2023-04-22T11:00:15;1.65;;;0.73;;
7173;SDS011;3628;48.654;8.932;2023-04-22T11:02:50;0.70;;;0.68;;
7173;SDS011;3628;48.654;8.932;2023-04-22T11:05:34;0.80;;;0.80;;
7173;SDS011;3628;48.654;8.932;2023-04-22T11:08:01;1.20;;;0.80;;
7173;SDS011;3628;48.654;8.932;2023-04-22T11:12:57;1.08;;;0.70;;
7173;SDS011;3628;48.654;8.932;2023-04-22T11:15:28;1.25;;;0.70;;
7173;SDS011;3628;48.654;8.932;2023-04-22T11:17:55;0.90;;;0.70;;
7173;SDS011;3628;48.654;8.932;2023-04-22T11:20:21;2.42;;;0.70;;
7173;SDS011;3628;48.654;8.932;2023-04-22T11:22:51;2.10;;;0.88;;
7173;SDS011;3628;48.654;8.932;2023-04-22T11:25:21;0.80;;;0.80;;
7173;SDS011;3628;48.654;8.932;2023-04-22T11:27:47;1.23;;;0.70;;
7173;SDS011;3628;48.654;8.932;2023-04-22T11:30:14;0.60;;;0.57;;
7173;SDS011;3628;48.654;8.932;2023-04-22T11:32:45;1.17;;;0.85;;
7173;SDS011;3628;48.654;8.932;2023-04-22T11:35:13;1.98;;;0.80;;
7173;SDS011;3628;48.654;8.932;2023-04-22T11:37:43;1.05;;;0.90;;
7173;SDS011;3628;48.654;8.932;2023-04-22T11:40:12;1.10;;;0.90;;
7173;SDS011;3628;48.654;8.932;2023-04-22T11:42:40;1.48;;;1.00;;
7173;SDS011;3628;48.654;8.932;2023-04-22T11:45:06;2.40;;;0.90;;
7173;SDS011;3628;48.654;8.932;2023-04-22T11:47:36;4.47;;;1.10;;
7173;SDS011;3628;48.654;8.932;2023-04-22T11:50:05;0.70;;;0.70;;
7173;SDS011;3628;48.654;8.932;2023-04-22T11:52:53;1.70;;;1.13;;
7173;SDS011;3628;48.654;8.932;2023-04-22T11:55:30;1.15;;;1.00;;
7173;SDS011;3628;48.654;8.932;2023-04-22T12:00:31;2.90;;;1.00;;
7173;SDS011;3628;48.654;8.932;2023-04-22T12:03:00;1.00;;;0.90;;
7173;SDS011;3628;48.654;8.932;2023-04-22T12:05:31;2.08;;;0.93;;
7173;SDS011;3628;48.654;8.932;2023-04-22T12:08:14;2.25;;;1.10;;
7173;SDS011;3628;48.654;8.932;2023-04-22T12:10:41;2.05;;;1.00;;
7173;SDS011;3628;48.654;8.932;2023-04-22T12:13:21;0.70;;;0.60;;
7173;SDS011;3628;48.654;8.932;2023-04-22T12:15:52;1.23;;;0.70;;
7173;SDS011;3628;48.654;8.932;2023-04-22T12:18:46;1.52;;;0.88;;
7173;SDS011;3628;48.654;8.932;2023-04-22T12:21:17;2.42;;;0.90;;
7173;SDS011;3628;48.654;8.932;2023-04-22T12:26:11;1.40;;;0.80;;
7173;SDS011;3628;48.654;8.932;2023-04-22T12:28:37;2.70;;;0.80;;
7173;SDS011;3628;48.654;8.932;2023-04-22T12:31:04;3.42;;;0.75;;
7173;SDS011;3628;48.654;8.932;2023-04-22T12:33:30;2.05;;;0.85;;
7173;SDS011;3628;48.654;8.932;2023-04-22T12:35:56;1.23;;;0.90;;
7173;SDS011;3628;48.654;8.932;2023-04-22T12:38:22;1.55;;;0.73;;
7173;SDS011;3628;48.654;8.932;2023-04-22T12:40:47;2.38;;;0.80;;
7173;SDS011;3628;48.654;8.932;2023-04-22T12:43:14;2.08;;;1.17;;
7173;SDS011;3628;48.654;8.932;2023-04-22T12:45:40;3.88;;;0.88;;
7173;SDS011;3628;48.654;8.932;2023-04-22T12:48:06;1.73;;;0.70;;
7173;SDS011;3628;48.654;8.932;2023-04-22T12:50:32;1.55;;;0.82;;
7173;SDS011;3628;48.654;8.932;2023-04-22T12:52:57;0.65;;;0.60;;
7173;SDS011;3628;48.654;8.932;2023-04-22T12:55:23;2.47;;;0.90;;
7173;SDS011;3628;48.654;8.932;2023-04-22T12:57:49;1.98;;;0.88;;
7173;SDS011;3628;48.654;8.932;2023-04-22T13:00:15;2.05;;;1.00;;
7173;SDS011;3628;48.654;8.932;2023-04-22T13:02:42;1.10;;;0.80;;
7173;SDS011;3628;48.654;8.932;2023-04-22T13:05:10;1.65;;;0.80;;
7173;SDS011;3628;48.654;8.932;2023-04-22T13:07:36;2.55;;;0.90;;
7173;SDS011;3628;48.654;8.932;2023-04-22T13:10:03;1.60;;;0.80;;
7173;SDS011;3628;48.654;8.932;2023-04-22T13:12:30;4.10;;;1.05;;
7173;SDS011;3628;48.654;8.932;2023-04-22T13:14:55;1.90;;;0.85;;
7173;SDS011;3628;48.654;8.932;2023-04-22T13:17:21;0.93;;;0.70;;
7173;SDS011;3628;48.654;8.932;2023-04-22T13:19:47;2.75;;;1.15;;
7173;SDS011;3628;48.654;8.932;2023-04-22T13:22:14;3.10;;;0.95;;
7173;SDS011;3628;48.654;8.932;2023-04-22T13:24:40;1.42;;;0.90;;
7173;SDS011;3628;48.654;8.932;2023-04-22T13:27:06;1.63;;;1.10;;
7173;SDS011;3628;48.654;8.932;2023-04-22T13:29:32;0.70;;;0.70;;
7173;SDS011;3628;48.654;8.932;2023-04-22T13:31:58;0.95;;;0.80;;
7173;SDS011;3628;48.654;8.932;2023-04-22T13:34:23;0.90;;;0.75;;
7173;SDS011;3628;48.654;8.932;2023-04-22T13:36:49;0.90;;;0.60;;
7173;SDS011;3628;48.654;8.932;2023-04-22T13:39:15;0.82;;;0.80;;
7173;SDS011;3628;48.654;8.932;2023-04-22T13:41:42;1.40;;;0.80;;
7173;SDS011;3628;48.654;8.932;2023-04-22T13:44:09;1.25;;;0.80;;
7173;SDS011;3628;48.654;8.932;2023-04-22T13:46:35;1.02;;;0.80;;
7173;SDS011;3628;48.654;8.932;2023-04-22T13:49:01;1.67;;;1.00;;
7173;SDS011;3628;48.654;8.932;2023-04-22T13:51:27;1.15;;;0.65;;
7173;SDS011;3628;48.654;8.932;2023-04-22T13:53:53;1.15;;;0.73;;
7173;SDS011;3628;48.654;8.932;2023-04-22T13:56:18;1.80;;;0.95;;
7173;SDS011;3628;48.654;8.932;2023-04-22T13:58:44;2.40;;;0.90;;
7173;SDS011;3628;48.654;8.932;2023-04-22T14:01:10;4.25;;;0.80;;
7173;SDS011;3628;48.654;8.932;2023-04-22T14:03:35;0.75;;;0.75;;
7173;SDS011;3628;48.654;8.932;2023-04-22T14:06:01;1.23;;;0.75;;
7173;SDS011;3628;48.654;8.932;2023-04-22T14:08:27;1.67;;;0.90;;
7173;SDS011;3628;48.654;8.932;2023-04-22T14:10:53;1.05;;;0.85;;
7173;SDS011;3628;48.654;8.932;2023-04-22T14:13:19;1.77;;;0.73;;
7173;SDS011;3628;48.654;8.932;2023-04-22T14:15:45;1.05;;;0.80;;
7173;SDS011;3628;48.654;8.932;2023-04-22T14:18:11;2.47;;;1.10;;
7173;SDS011;3628;48.654;8.932;2023-04-22T14:20:37;0.85;;;0.70;;
7173;SDS011;3628;48.654;8.932;2023-04-22T14:23:03;2.60;;;1.17;;
7173;SDS011;3628;48.654;8.932;2023-04-22T14:25:29;2.03;;;1.15;;
7173;SDS011;3628;48.654;8.932;2023-04-22T14:27:55;3.42;;;1.00;;
7173;SDS011;3628;48.654;8.932;2023-04-22T14:30:21;3.60;;;1.17;;
7173;SDS011;3628;48.654;8.932;2023-04-22T14:32:46;0.77;;;0.77;;
7173;SDS011;3628;48.654;8.932;2023-04-22T14:35:13;3.90;;;1.00;;
7173;SDS011;3628;48.654;8.932;2023-04-22T14:37:38;2.08;;;1.00;;
7173;SDS011;3628;48.654;8.932;2023-04-22T14:40:06;2.35;;;0.80;;
7173;SDS011;3628;48.654;8.932;2023-04-22T14:42:32;1.38;;;0.90;;
7173;SDS011;3628;48.654;8.932;2023-04-22T14:44:57;3.70;;;1.08;;
7173;SDS011;3628;48.654;8.932;2023-04-22T14:47:23;2.72;;;1.10;;
7173;SDS011;3628;48.654;8.932;2023-04-22T14:49:49;3.25;;;1.30;;
7173;SDS011;3628;48.654;8.932;2023-04-22T14:52:14;3.05;;;1.00;;
7173;SDS011;3628;48.654;8.932;2023-04-22T14:54:40;2.22;;;0.90;;
7173;SDS011;3628;48.654;8.932;2023-04-22T14:57:06;1.17;;;1.05;;
7173;SDS011;3628;48.654;8.932;2023-04-22T14:59:31;2.45;;;1.20;;
7173;SDS011;3628;48.654;8.932;2023-04-22T15:01:57;1.70;;;0.98;;
7173;SDS011;3628;48.654;8.932;2023-04-22T15:04:23;4.25;;;0.93;;
7173;SDS011;3628;48.654;8.932;2023-04-22T15:06:48;1.35;;;0.90;;
7173;SDS011;3628;48.654;8.932;2023-04-22T15:09:14;3.03;;;1.13;;
7173;SDS011;3628;48.654;8.932;2023-04-22T15:11:39;1.05;;;0.90;;
7173;SDS011;3628;48.654;8.932;2023-04-22T15:14:05;2.15;;;1.00;;
7173;SDS011;3628;48.654;8.932;2023-04-22T15:16:31;3.28;;;0.98;;
7173;SDS011;3628;48.654;8.932;2023-04-22T15:18:56;1.40;;;1.15;;
7173;SDS011;3628;48.654;8.932;2023-04-22T15:21:22;1.30;;;0.90;;
7173;SDS011;3628;48.654;8.932;2023-04-22T15:23:47;1.40;;;1.00;;
7173;SDS011;3628;48.654;8.932;2023-04-22T15:26:13;3.13;;;1.13;;
7173;SDS011;3628;48.654;8.932;2023-04-22T15:28:39;3.00;;;1.27;;